sensor_id;sensor_type;location;lat;lon;timestamp;temperature;humidity
66019;HTU21D;52787;51.084;5.816;2022-12-07T00:01:27;6.88;86.06
66019;HTU21D;52787;51.084;5.816;2022-12-07T00:03:56;6.89;85.84
66019;HTU21D;52787;51.084;5.816;2022-12-07T00:06:29;6.89;85.77
66019;HTU21D;52787;51.084;5.816;2022-12-07T00:08:55;6.88;85.70
66019;HTU21D;52787;51.084;5.816;2022-12-07T00:11:22;6.85;85.80
66019;HTU21D;52787;51.084;5.816;2022-12-07T00:14:01;6.86;85.83
66019;HTU21D;52787;51.084;5.816;2022-12-07T00:16:30;6.85;85.68
66019;HTU21D;52787;51.084;5.816;2022-12-07T00:18:57;6.86;85.71
66019;HTU21D;52787;51.084;5.816;2022-12-07T00:21:26;6.87;85.61
66019;HTU21D;52787;51.084;5.816;2022-12-07T00:23:55;6.86;85.58
66019;HTU21D;52787;51.084;5.816;2022-12-07T00:26:24;6.88;85.42
66019;HTU21D;52787;51.084;5.816;2022-12-07T00:28:54;6.85;85.37
66019;HTU21D;52787;51.084;5.816;2022-12-07T00:31:24;6.78;85.78
66019;HTU21D;52787;51.084;5.816;2022-12-07T00:33:53;6.79;85.74
66019;HTU21D;52787;51.084;5.816;2022-12-07T00:36:21;6.76;85.75
66019;HTU21D;52787;51.084;5.816;2022-12-07T00:38:48;6.71;86.00
66019;HTU21D;52787;51.084;5.816;2022-12-07T00:41:22;6.69;86.24
66019;HTU21D;52787;51.084;5.816;2022-12-07T00:43:50;6.71;86.24
66019;HTU21D;52787;51.084;5.816;2022-12-07T00:46:18;6.73;86.27
66019;HTU21D;52787;51.084;5.816;2022-12-07T00:48:46;6.70;86.51
66019;HTU21D;52787;51.084;5.816;2022-12-07T00:51:14;6.73;86.62
66019;HTU21D;52787;51.084;5.816;2022-12-07T00:53:41;6.76;86.73
66019;HTU21D;52787;51.084;5.816;2022-12-07T00:56:20;6.83;86.49
66019;HTU21D;52787;51.084;5.816;2022-12-07T00:58:59;6.88;86.25
66019;HTU21D;52787;51.084;5.816;2022-12-07T01:01:28;6.90;86.12
66019;HTU21D;52787;51.084;5.816;2022-12-07T01:03:55;6.90;86.19
66019;HTU21D;52787;51.084;5.816;2022-12-07T01:06:22;6.89;86.07
66019;HTU21D;52787;51.084;5.816;2022-12-07T01:08:50;6.91;86.22
66019;HTU21D;52787;51.084;5.816;2022-12-07T01:11:19;6.86;86.19
66019;HTU21D;52787;51.084;5.816;2022-12-07T01:13:49;6.82;86.32
66019;HTU21D;52787;51.084;5.816;2022-12-07T01:16:16;6.78;86.57
66019;HTU21D;52787;51.084;5.816;2022-12-07T01:18:46;6.72;86.87
66019;HTU21D;52787;51.084;5.816;2022-12-07T01:21:21;6.69;87.04
66019;HTU21D;52787;51.084;5.816;2022-12-07T01:23:50;6.64;87.15
66019;HTU21D;52787;51.084;5.816;2022-12-07T01:26:19;6.63;87.51
66019;HTU21D;52787;51.084;5.816;2022-12-07T01:28:47;6.59;87.60
66019;HTU21D;52787;51.084;5.816;2022-12-07T01:31:16;6.60;87.64
66019;HTU21D;52787;51.084;5.816;2022-12-07T01:33:49;6.65;87.61
66019;HTU21D;52787;51.084;5.816;2022-12-07T01:38:44;6.71;87.28
66019;HTU21D;52787;51.084;5.816;2022-12-07T01:41:11;6.69;87.21
66019;HTU21D;52787;51.084;5.816;2022-12-07T01:46:39;6.68;87.51
66019;HTU21D;52787;51.084;5.816;2022-12-07T01:49:10;6.70;87.42
66019;HTU21D;52787;51.084;5.816;2022-12-07T01:52:08;6.67;87.63
66019;HTU21D;52787;51.084;5.816;2022-12-07T01:54:37;6.64;87.84
66019;HTU21D;52787;51.084;5.816;2022-12-07T01:57:06;6.66;87.82
66019;HTU21D;52787;51.084;5.816;2022-12-07T01:59:33;6.67;87.75
66019;HTU21D;52787;51.084;5.816;2022-12-07T02:02:04;6.65;87.67
66019;HTU21D;52787;51.084;5.816;2022-12-07T02:04:33;6.58;87.96
66019;HTU21D;52787;51.084;5.816;2022-12-07T02:07:00;6.58;88.04
66019;HTU21D;52787;51.084;5.816;2022-12-07T02:09:27;6.63;87.95
66019;HTU21D;52787;51.084;5.816;2022-12-07T02:11:54;6.56;88.01
66019;HTU21D;52787;51.084;5.816;2022-12-07T02:14:20;6.54;88.06
66019;HTU21D;52787;51.084;5.816;2022-12-07T02:16:47;6.55;88.11
66019;HTU21D;52787;51.084;5.816;2022-12-07T02:28:34;6.48;88.06
66019;HTU21D;52787;51.084;5.816;2022-12-07T02:31:12;6.51;88.18
66019;HTU21D;52787;51.084;5.816;2022-12-07T02:33:49;6.55;88.26
66019;HTU21D;52787;51.084;5.816;2022-12-07T02:36:44;6.60;87.87
66019;HTU21D;52787;51.084;5.816;2022-12-07T02:39:20;6.64;87.66
66019;HTU21D;52787;51.084;5.816;2022-12-07T02:42:07;6.67;87.45
66019;HTU21D;52787;51.084;5.816;2022-12-07T02:44:39;6.71;87.40
66019;HTU21D;52787;51.084;5.816;2022-12-07T02:47:10;6.74;87.20
66019;HTU21D;52787;51.084;5.816;2022-12-07T02:49:39;6.74;87.07
66019;HTU21D;52787;51.084;5.816;2022-12-07T02:52:05;6.68;87.18
66019;HTU21D;52787;51.084;5.816;2022-12-07T02:54:31;6.71;87.16
66019;HTU21D;52787;51.084;5.816;2022-12-07T03:11:36;6.75;87.28
66019;HTU21D;52787;51.084;5.816;2022-12-07T03:14:21;6.83;86.92
66019;HTU21D;52787;51.084;5.816;2022-12-07T03:17:00;6.88;86.61
66019;HTU21D;52787;51.084;5.816;2022-12-07T03:19:42;6.88;86.56
66019;HTU21D;52787;51.084;5.816;2022-12-07T03:22:13;6.89;86.40
66019;HTU21D;52787;51.084;5.816;2022-12-07T03:24:48;6.89;86.05
66019;HTU21D;52787;51.084;5.816;2022-12-07T03:31:30;6.91;86.19
66019;HTU21D;52787;51.084;5.816;2022-12-07T03:33:39;6.93;86.08
66019;HTU21D;52787;51.084;5.816;2022-12-07T03:36:55;6.94;86.05
66019;HTU21D;52787;51.084;5.816;2022-12-07T03:39:46;6.93;86.06
66019;HTU21D;52787;51.084;5.816;2022-12-07T03:42:22;6.91;86.04
66019;HTU21D;52787;51.084;5.816;2022-12-07T03:44:49;6.93;86.19
66019;HTU21D;52787;51.084;5.816;2022-12-07T03:47:59;6.93;86.36
66019;HTU21D;52787;51.084;5.816;2022-12-07T03:53:18;6.87;86.34
66019;HTU21D;52787;51.084;5.816;2022-12-07T03:55:49;6.82;86.54
66019;HTU21D;52787;51.084;5.816;2022-12-07T03:58:21;6.75;86.74
66019;HTU21D;52787;51.084;5.816;2022-12-07T04:00:49;6.69;86.97
66019;HTU21D;52787;51.084;5.816;2022-12-07T04:03:15;6.61;87.18
66019;HTU21D;52787;51.084;5.816;2022-12-07T04:05:42;6.59;87.16
66019;HTU21D;52787;51.084;5.816;2022-12-07T04:08:08;6.56;87.32
66019;HTU21D;52787;51.084;5.816;2022-12-07T04:10:35;6.55;87.32
66019;HTU21D;52787;51.084;5.816;2022-12-07T04:13:01;6.50;87.34
66019;HTU21D;52787;51.084;5.816;2022-12-07T04:15:27;6.50;87.35
66019;HTU21D;52787;51.084;5.816;2022-12-07T04:17:53;6.46;87.26
66019;HTU21D;52787;51.084;5.816;2022-12-07T04:20:20;6.46;87.43
66019;HTU21D;52787;51.084;5.816;2022-12-07T04:22:46;6.45;87.40
66019;HTU21D;52787;51.084;5.816;2022-12-07T04:25:12;6.53;87.24
66019;HTU21D;52787;51.084;5.816;2022-12-07T04:27:38;6.55;86.98
66019;HTU21D;52787;51.084;5.816;2022-12-07T04:30:04;6.54;86.99
66019;HTU21D;52787;51.084;5.816;2022-12-07T04:32:31;6.54;87.00
66019;HTU21D;52787;51.084;5.816;2022-12-07T04:34:56;6.58;86.90
66019;HTU21D;52787;51.084;5.816;2022-12-07T04:37:23;6.61;86.55
66019;HTU21D;52787;51.084;5.816;2022-12-07T04:39:48;6.60;86.54
66019;HTU21D;52787;51.084;5.816;2022-12-07T04:42:14;6.61;86.51
66019;HTU21D;52787;51.084;5.816;2022-12-07T04:44:40;6.60;86.42
66019;HTU21D;52787;51.084;5.816;2022-12-07T04:47:06;6.57;86.42
66019;HTU21D;52787;51.084;5.816;2022-12-07T04:49:32;6.54;86.37
66019;HTU21D;52787;51.084;5.816;2022-12-07T04:51:58;6.51;86.62
66019;HTU21D;52787;51.084;5.816;2022-12-07T04:54:24;6.48;86.70
66019;HTU21D;52787;51.084;5.816;2022-12-07T04:56:50;6.50;86.54
66019;HTU21D;52787;51.084;5.816;2022-12-07T04:59:16;6.53;86.50
66019;HTU21D;52787;51.084;5.816;2022-12-07T05:01:43;6.55;86.48
66019;HTU21D;52787;51.084;5.816;2022-12-07T05:04:09;6.60;86.10
66019;HTU21D;52787;51.084;5.816;2022-12-07T05:06:35;6.60;86.13
66019;HTU21D;52787;51.084;5.816;2022-12-07T05:09:01;6.63;86.09
66019;HTU21D;52787;51.084;5.816;2022-12-07T05:11:27;6.59;86.12
66019;HTU21D;52787;51.084;5.816;2022-12-07T05:14:16;6.54;86.44
66019;HTU21D;52787;51.084;5.816;2022-12-07T05:16:48;6.51;86.69
66019;HTU21D;52787;51.084;5.816;2022-12-07T05:19:15;6.48;86.99
66019;HTU21D;52787;51.084;5.816;2022-12-07T05:21:41;6.50;87.08
66019;HTU21D;52787;51.084;5.816;2022-12-07T05:24:10;6.44;87.36
66019;HTU21D;52787;51.084;5.816;2022-12-07T05:26:37;6.46;87.48
66019;HTU21D;52787;51.084;5.816;2022-12-07T05:29:04;6.49;87.51
66019;HTU21D;52787;51.084;5.816;2022-12-07T05:31:30;6.54;87.59
66019;HTU21D;52787;51.084;5.816;2022-12-07T05:33:57;6.63;87.31
66019;HTU21D;52787;51.084;5.816;2022-12-07T05:36:22;6.68;87.09
66019;HTU21D;52787;51.084;5.816;2022-12-07T05:38:49;6.68;86.86
66019;HTU21D;52787;51.084;5.816;2022-12-07T05:41:17;6.66;86.80
66019;HTU21D;52787;51.084;5.816;2022-12-07T05:44:04;6.68;86.85
66019;HTU21D;52787;51.084;5.816;2022-12-07T05:46:30;6.68;86.74
66019;HTU21D;52787;51.084;5.816;2022-12-07T05:48:56;6.67;86.70
66019;HTU21D;52787;51.084;5.816;2022-12-07T05:51:22;6.67;86.82
66019;HTU21D;52787;51.084;5.816;2022-12-07T05:53:47;6.63;86.80
66019;HTU21D;52787;51.084;5.816;2022-12-07T05:56:13;6.63;87.03
66019;HTU21D;52787;51.084;5.816;2022-12-07T05:58:39;6.63;86.90
66019;HTU21D;52787;51.084;5.816;2022-12-07T06:01:23;6.58;87.09
66019;HTU21D;52787;51.084;5.816;2022-12-07T06:03:49;6.57;87.22
66019;HTU21D;52787;51.084;5.816;2022-12-07T06:06:15;6.58;87.40
66019;HTU21D;52787;51.084;5.816;2022-12-07T06:08:41;6.59;87.33
66019;HTU21D;52787;51.084;5.816;2022-12-07T06:11:07;6.59;87.26
66019;HTU21D;52787;51.084;5.816;2022-12-07T06:13:51;6.60;87.21
66019;HTU21D;52787;51.084;5.816;2022-12-07T06:16:17;6.60;87.29
66019;HTU21D;52787;51.084;5.816;2022-12-07T06:18:43;6.58;87.34
66019;HTU21D;52787;51.084;5.816;2022-12-07T06:21:08;6.58;87.22
66019;HTU21D;52787;51.084;5.816;2022-12-07T06:23:34;6.50;87.50
66019;HTU21D;52787;51.084;5.816;2022-12-07T06:26:00;6.46;87.91
66019;HTU21D;52787;51.084;5.816;2022-12-07T06:28:25;6.43;88.09
66019;HTU21D;52787;51.084;5.816;2022-12-07T06:31:02;6.43;88.14
66019;HTU21D;52787;51.084;5.816;2022-12-07T06:33:29;6.40;88.53
66019;HTU21D;52787;51.084;5.816;2022-12-07T06:35:55;6.45;88.42
66019;HTU21D;52787;51.084;5.816;2022-12-07T06:38:21;6.51;88.15
66019;HTU21D;52787;51.084;5.816;2022-12-07T06:40:47;6.53;88.14
66019;HTU21D;52787;51.084;5.816;2022-12-07T06:43:13;6.54;87.84
66019;HTU21D;52787;51.084;5.816;2022-12-07T06:45:40;6.55;87.84
66019;HTU21D;52787;51.084;5.816;2022-12-07T06:48:07;6.55;87.80
66019;HTU21D;52787;51.084;5.816;2022-12-07T06:50:33;6.57;87.67
66019;HTU21D;52787;51.084;5.816;2022-12-07T06:52:59;6.56;87.62
66019;HTU21D;52787;51.084;5.816;2022-12-07T06:55:24;6.57;87.51
66019;HTU21D;52787;51.084;5.816;2022-12-07T06:57:50;6.57;87.30
66019;HTU21D;52787;51.084;5.816;2022-12-07T07:00:16;6.54;87.28
66019;HTU21D;52787;51.084;5.816;2022-12-07T07:02:42;6.54;87.35
66019;HTU21D;52787;51.084;5.816;2022-12-07T07:05:08;6.55;87.19
66019;HTU21D;52787;51.084;5.816;2022-12-07T07:07:34;6.56;86.92
66019;HTU21D;52787;51.084;5.816;2022-12-07T07:10:00;6.57;86.96
66019;HTU21D;52787;51.084;5.816;2022-12-07T07:12:26;6.58;86.84
66019;HTU21D;52787;51.084;5.816;2022-12-07T07:14:51;6.58;86.66
66019;HTU21D;52787;51.084;5.816;2022-12-07T07:17:17;6.60;86.54
66019;HTU21D;52787;51.084;5.816;2022-12-07T07:19:43;6.61;86.25
66019;HTU21D;52787;51.084;5.816;2022-12-07T07:22:09;6.60;86.24
66019;HTU21D;52787;51.084;5.816;2022-12-07T07:24:34;6.66;85.94
66019;HTU21D;52787;51.084;5.816;2022-12-07T07:27:00;6.66;85.51
66019;HTU21D;52787;51.084;5.816;2022-12-07T07:29:26;6.67;85.38
66019;HTU21D;52787;51.084;5.816;2022-12-07T07:31:52;6.65;85.22
66019;HTU21D;52787;51.084;5.816;2022-12-07T07:34:18;6.61;85.23
66019;HTU21D;52787;51.084;5.816;2022-12-07T07:36:43;6.55;85.42
66019;HTU21D;52787;51.084;5.816;2022-12-07T07:39:10;6.55;85.48
66019;HTU21D;52787;51.084;5.816;2022-12-07T07:41:38;6.52;85.23
66019;HTU21D;52787;51.084;5.816;2022-12-07T07:44:04;6.46;85.40
66019;HTU21D;52787;51.084;5.816;2022-12-07T07:46:29;6.39;85.63
66019;HTU21D;52787;51.084;5.816;2022-12-07T07:48:55;6.34;85.77
66019;HTU21D;52787;51.084;5.816;2022-12-07T07:51:21;6.30;86.08
66019;HTU21D;52787;51.084;5.816;2022-12-07T07:53:47;6.33;86.16
66019;HTU21D;52787;51.084;5.816;2022-12-07T07:56:12;6.35;85.86
66019;HTU21D;52787;51.084;5.816;2022-12-07T07:58:38;6.34;85.77
66019;HTU21D;52787;51.084;5.816;2022-12-07T08:01:08;6.34;85.54
66019;HTU21D;52787;51.084;5.816;2022-12-07T08:03:34;6.31;85.71
66019;HTU21D;52787;51.084;5.816;2022-12-07T08:06:02;6.30;85.66
66019;HTU21D;52787;51.084;5.816;2022-12-07T08:08:28;6.27;85.74
66019;HTU21D;52787;51.084;5.816;2022-12-07T08:10:54;6.26;85.81
66019;HTU21D;52787;51.084;5.816;2022-12-07T08:13:20;6.23;85.84
66019;HTU21D;52787;51.084;5.816;2022-12-07T08:15:47;6.20;86.14
66019;HTU21D;52787;51.084;5.816;2022-12-07T08:18:15;6.19;86.25
66019;HTU21D;52787;51.084;5.816;2022-12-07T08:20:41;6.21;86.23
66019;HTU21D;52787;51.084;5.816;2022-12-07T08:23:09;6.23;85.96
66019;HTU21D;52787;51.084;5.816;2022-12-07T08:25:35;6.26;86.03
66019;HTU21D;52787;51.084;5.816;2022-12-07T08:28:02;6.26;85.78
66019;HTU21D;52787;51.084;5.816;2022-12-07T08:30:29;6.27;85.93
66019;HTU21D;52787;51.084;5.816;2022-12-07T08:32:56;6.27;85.97
66019;HTU21D;52787;51.084;5.816;2022-12-07T08:35:23;6.30;86.16
66019;HTU21D;52787;51.084;5.816;2022-12-07T08:37:49;6.38;86.35
66019;HTU21D;52787;51.084;5.816;2022-12-07T08:40:15;6.44;85.84
66019;HTU21D;52787;51.084;5.816;2022-12-07T08:42:48;6.46;85.93
66019;HTU21D;52787;51.084;5.816;2022-12-07T08:45:17;6.48;86.07
66019;HTU21D;52787;51.084;5.816;2022-12-07T08:47:50;6.45;86.19
66019;HTU21D;52787;51.084;5.816;2022-12-07T08:50:22;6.49;86.16
66019;HTU21D;52787;51.084;5.816;2022-12-07T08:52:51;6.51;86.04
66019;HTU21D;52787;51.084;5.816;2022-12-07T08:55:18;6.52;86.18
66019;HTU21D;52787;51.084;5.816;2022-12-07T08:57:44;6.59;86.47
66019;HTU21D;52787;51.084;5.816;2022-12-07T09:00:11;6.70;86.09
66019;HTU21D;52787;51.084;5.816;2022-12-07T09:02:37;6.72;85.77
66019;HTU21D;52787;51.084;5.816;2022-12-07T09:05:04;6.75;85.84
66019;HTU21D;52787;51.084;5.816;2022-12-07T09:07:32;6.83;85.80
66019;HTU21D;52787;51.084;5.816;2022-12-07T09:09:58;6.85;85.71
66019;HTU21D;52787;51.084;5.816;2022-12-07T09:12:24;6.89;85.78
66019;HTU21D;52787;51.084;5.816;2022-12-07T09:14:49;6.94;85.43
66019;HTU21D;52787;51.084;5.816;2022-12-07T09:17:15;6.94;85.29
66019;HTU21D;52787;51.084;5.816;2022-12-07T09:19:41;6.96;85.42
66019;HTU21D;52787;51.084;5.816;2022-12-07T09:22:08;6.98;85.37
66019;HTU21D;52787;51.084;5.816;2022-12-07T09:24:34;7.01;85.51
66019;HTU21D;52787;51.084;5.816;2022-12-07T09:27:00;7.03;85.06
66019;HTU21D;52787;51.084;5.816;2022-12-07T09:29:26;7.09;84.97
66019;HTU21D;52787;51.084;5.816;2022-12-07T09:31:52;7.08;84.81
66019;HTU21D;52787;51.084;5.816;2022-12-07T09:34:18;7.05;84.72
66019;HTU21D;52787;51.084;5.816;2022-12-07T09:36:45;7.07;85.05
66019;HTU21D;52787;51.084;5.816;2022-12-07T09:39:11;7.15;84.94
66019;HTU21D;52787;51.084;5.816;2022-12-07T09:41:39;7.24;84.47
66019;HTU21D;52787;51.084;5.816;2022-12-07T09:44:13;7.27;84.24
66019;HTU21D;52787;51.084;5.816;2022-12-07T09:46:49;7.25;84.08
66019;HTU21D;52787;51.084;5.816;2022-12-07T09:49:21;7.25;84.13
66019;HTU21D;52787;51.084;5.816;2022-12-07T09:52:01;7.29;83.97
66019;HTU21D;52787;51.084;5.816;2022-12-07T09:54:30;7.29;83.42
66019;HTU21D;52787;51.084;5.816;2022-12-07T09:56:56;7.30;83.56
66019;HTU21D;52787;51.084;5.816;2022-12-07T09:59:22;7.37;83.48
66019;HTU21D;52787;51.084;5.816;2022-12-07T10:01:50;7.49;83.37
66019;HTU21D;52787;51.084;5.816;2022-12-07T10:04:22;7.72;83.25
66019;HTU21D;52787;51.084;5.816;2022-12-07T10:06:50;8.04;82.17
66019;HTU21D;52787;51.084;5.816;2022-12-07T10:09:19;8.32;81.61
66019;HTU21D;52787;51.084;5.816;2022-12-07T10:12:09;8.60;80.68
66019;HTU21D;52787;51.084;5.816;2022-12-07T10:14:40;8.73;79.11
66019;HTU21D;52787;51.084;5.816;2022-12-07T10:17:35;8.64;79.11
66019;HTU21D;52787;51.084;5.816;2022-12-07T10:20:20;8.57;79.82
66019;HTU21D;52787;51.084;5.816;2022-12-07T10:23:05;8.52;79.62
66019;HTU21D;52787;51.084;5.816;2022-12-07T10:25:37;8.49;79.98
66019;HTU21D;52787;51.084;5.816;2022-12-07T10:30:52;8.68;79.82
66019;HTU21D;52787;51.084;5.816;2022-12-07T10:38:51;9.17;78.23
66019;HTU21D;52787;51.084;5.816;2022-12-07T10:44:30;9.49;76.02
66019;HTU21D;52787;51.084;5.816;2022-12-07T11:04:54;9.57;74.90
66019;HTU21D;52787;51.084;5.816;2022-12-07T11:10:44;9.37;75.32
66019;HTU21D;52787;51.084;5.816;2022-12-07T11:13:33;9.40;75.12
66019;HTU21D;52787;51.084;5.816;2022-12-07T11:19:00;10.34;73.23
66019;HTU21D;52787;51.084;5.816;2022-12-07T11:21:48;10.69;72.15
66019;HTU21D;52787;51.084;5.816;2022-12-07T11:24:31;10.93;71.19
66019;HTU21D;52787;51.084;5.816;2022-12-07T11:30:19;11.02;69.94
66019;HTU21D;52787;51.084;5.816;2022-12-07T11:35:54;11.11;69.18
66019;HTU21D;52787;51.084;5.816;2022-12-07T11:38:50;11.16;68.77
66019;HTU21D;52787;51.084;5.816;2022-12-07T11:41:33;11.16;68.65
66019;HTU21D;52787;51.084;5.816;2022-12-07T11:44:08;11.16;68.54
66019;HTU21D;52787;51.084;5.816;2022-12-07T11:47:05;11.22;68.33
66019;HTU21D;52787;51.084;5.816;2022-12-07T11:53:05;11.03;68.85
66019;HTU21D;52787;51.084;5.816;2022-12-07T11:55:47;10.98;69.35
66019;HTU21D;52787;51.084;5.816;2022-12-07T12:06:44;10.94;69.68
66019;HTU21D;52787;51.084;5.816;2022-12-07T12:09:26;11.16;68.97
66019;HTU21D;52787;51.084;5.816;2022-12-07T12:12:18;11.28;68.07
66019;HTU21D;52787;51.084;5.816;2022-12-07T12:17:50;12.81;63.74
66019;HTU21D;52787;51.084;5.816;2022-12-07T12:26:16;12.49;62.72
66019;HTU21D;52787;51.084;5.816;2022-12-07T12:33:59;11.38;66.51
66019;HTU21D;52787;51.084;5.816;2022-12-07T12:36:46;11.28;67.78
66019;HTU21D;52787;51.084;5.816;2022-12-07T12:39:15;11.18;68.18
66019;HTU21D;52787;51.084;5.816;2022-12-07T12:46:48;10.54;69.94
66019;HTU21D;52787;51.084;5.816;2022-12-07T12:51:51;10.21;71.38
66019;HTU21D;52787;51.084;5.816;2022-12-07T12:56:55;10.01;72.40
66019;HTU21D;52787;51.084;5.816;2022-12-07T12:59:38;9.91;72.87
66019;HTU21D;52787;51.084;5.816;2022-12-07T13:26:25;9.46;74.09
66019;HTU21D;52787;51.084;5.816;2022-12-07T13:29:18;9.42;74.09
66019;HTU21D;52787;51.084;5.816;2022-12-07T13:31:52;9.42;74.41
66019;HTU21D;52787;51.084;5.816;2022-12-07T13:34:39;9.50;74.51
66019;HTU21D;52787;51.084;5.816;2022-12-07T13:37:20;9.48;74.77
66019;HTU21D;52787;51.084;5.816;2022-12-07T13:39:53;9.48;74.84
66019;HTU21D;52787;51.084;5.816;2022-12-07T13:42:32;9.48;74.75
66019;HTU21D;52787;51.084;5.816;2022-12-07T13:45:20;9.44;74.81
66019;HTU21D;52787;51.084;5.816;2022-12-07T13:47:58;9.36;74.92
66019;HTU21D;52787;51.084;5.816;2022-12-07T13:50:30;9.29;74.74
66019;HTU21D;52787;51.084;5.816;2022-12-07T13:52:58;9.22;74.81
66019;HTU21D;52787;51.084;5.816;2022-12-07T13:55:27;9.17;75.10
66019;HTU21D;52787;51.084;5.816;2022-12-07T13:57:56;9.15;75.41
66019;HTU21D;52787;51.084;5.816;2022-12-07T14:00:28;9.14;75.47
66019;HTU21D;52787;51.084;5.816;2022-12-07T14:03:01;9.10;75.79
66019;HTU21D;52787;51.084;5.816;2022-12-07T14:05:41;9.07;76.05
66019;HTU21D;52787;51.084;5.816;2022-12-07T14:13:37;9.24;75.98
66019;HTU21D;52787;51.084;5.816;2022-12-07T14:19:04;9.23;75.67
66019;HTU21D;52787;51.084;5.816;2022-12-07T14:21:33;9.19;75.87
66019;HTU21D;52787;51.084;5.816;2022-12-07T14:24:20;9.18;75.95
66019;HTU21D;52787;51.084;5.816;2022-12-07T14:26:50;9.16;76.26
66019;HTU21D;52787;51.084;5.816;2022-12-07T14:29:30;9.12;76.27
66019;HTU21D;52787;51.084;5.816;2022-12-07T14:32:22;9.17;76.15
66019;HTU21D;52787;51.084;5.816;2022-12-07T14:35:10;9.11;76.23
66019;HTU21D;52787;51.084;5.816;2022-12-07T14:37:39;9.08;76.29
66019;HTU21D;52787;51.084;5.816;2022-12-07T14:40:06;9.08;76.31
66019;HTU21D;52787;51.084;5.816;2022-12-07T14:42:34;9.11;76.30
66019;HTU21D;52787;51.084;5.816;2022-12-07T14:45:00;9.14;75.91
66019;HTU21D;52787;51.084;5.816;2022-12-07T14:47:26;9.10;75.84
66019;HTU21D;52787;51.084;5.816;2022-12-07T14:49:53;9.08;76.26
66019;HTU21D;52787;51.084;5.816;2022-12-07T14:52:28;9.05;76.12
66019;HTU21D;52787;51.084;5.816;2022-12-07T14:54:55;8.97;76.07
66019;HTU21D;52787;51.084;5.816;2022-12-07T14:57:22;8.86;76.34
66019;HTU21D;52787;51.084;5.816;2022-12-07T14:59:48;8.71;77.04
66019;HTU21D;52787;51.084;5.816;2022-12-07T15:02:15;8.61;77.43
66019;HTU21D;52787;51.084;5.816;2022-12-07T15:04:42;8.51;77.62
66019;HTU21D;52787;51.084;5.816;2022-12-07T15:07:21;8.44;77.89
66019;HTU21D;52787;51.084;5.816;2022-12-07T15:09:48;8.35;78.01
66019;HTU21D;52787;51.084;5.816;2022-12-07T15:12:14;8.29;78.09
66019;HTU21D;52787;51.084;5.816;2022-12-07T15:14:39;8.23;78.21
66019;HTU21D;52787;51.084;5.816;2022-12-07T15:17:05;8.17;78.05
66019;HTU21D;52787;51.084;5.816;2022-12-07T15:19:31;8.13;78.16
66019;HTU21D;52787;51.084;5.816;2022-12-07T15:21:57;8.06;78.22
66019;HTU21D;52787;51.084;5.816;2022-12-07T15:24:25;8.04;78.20
66019;HTU21D;52787;51.084;5.816;2022-12-07T15:26:51;8.00;78.11
66019;HTU21D;52787;51.084;5.816;2022-12-07T15:29:17;7.97;78.24
66019;HTU21D;52787;51.084;5.816;2022-12-07T15:31:43;7.93;78.24
66019;HTU21D;52787;51.084;5.816;2022-12-07T15:34:11;7.88;78.42
66019;HTU21D;52787;51.084;5.816;2022-12-07T15:36:36;7.76;78.71
66019;HTU21D;52787;51.084;5.816;2022-12-07T15:39:03;7.72;78.86
66019;HTU21D;52787;51.084;5.816;2022-12-07T15:41:29;7.75;78.92
66019;HTU21D;52787;51.084;5.816;2022-12-07T15:43:54;7.76;78.63
66019;HTU21D;52787;51.084;5.816;2022-12-07T15:46:40;7.71;78.69
66019;HTU21D;52787;51.084;5.816;2022-12-07T15:49:13;7.67;78.78
66019;HTU21D;52787;51.084;5.816;2022-12-07T15:51:42;7.64;78.83
66019;HTU21D;52787;51.084;5.816;2022-12-07T15:54:18;7.64;78.97
66019;HTU21D;52787;51.084;5.816;2022-12-07T15:56:45;7.63;79.04
66019;HTU21D;52787;51.084;5.816;2022-12-07T15:59:11;7.59;79.19
66019;HTU21D;52787;51.084;5.816;2022-12-07T16:01:37;7.59;79.24
66019;HTU21D;52787;51.084;5.816;2022-12-07T16:04:02;7.58;79.20
66019;HTU21D;52787;51.084;5.816;2022-12-07T16:06:28;7.57;79.55
66019;HTU21D;52787;51.084;5.816;2022-12-07T16:08:54;7.57;79.61
66019;HTU21D;52787;51.084;5.816;2022-12-07T16:11:20;7.54;79.72
66019;HTU21D;52787;51.084;5.816;2022-12-07T16:13:46;7.50;80.05
66019;HTU21D;52787;51.084;5.816;2022-12-07T16:16:15;7.50;80.18
66019;HTU21D;52787;51.084;5.816;2022-12-07T16:18:44;7.53;80.36
66019;HTU21D;52787;51.084;5.816;2022-12-07T16:21:11;7.55;80.43
66019;HTU21D;52787;51.084;5.816;2022-12-07T16:23:37;7.53;80.71
66019;HTU21D;52787;51.084;5.816;2022-12-07T16:26:05;7.48;81.07
66019;HTU21D;52787;51.084;5.816;2022-12-07T16:28:36;7.48;81.28
66019;HTU21D;52787;51.084;5.816;2022-12-07T16:31:28;7.43;81.49
66019;HTU21D;52787;51.084;5.816;2022-12-07T16:33:56;7.38;82.00
66019;HTU21D;52787;51.084;5.816;2022-12-07T16:36:24;7.29;82.69
66019;HTU21D;52787;51.084;5.816;2022-12-07T16:38:50;7.29;83.20
66019;HTU21D;52787;51.084;5.816;2022-12-07T16:41:16;7.27;83.51
66019;HTU21D;52787;51.084;5.816;2022-12-07T16:43:43;7.31;83.54
66019;HTU21D;52787;51.084;5.816;2022-12-07T16:46:09;7.33;83.51
66019;HTU21D;52787;51.084;5.816;2022-12-07T16:48:39;7.32;83.55
66019;HTU21D;52787;51.084;5.816;2022-12-07T16:51:08;7.26;83.81
66019;HTU21D;52787;51.084;5.816;2022-12-07T16:53:37;7.18;84.03
66019;HTU21D;52787;51.084;5.816;2022-12-07T16:56:04;7.12;84.35
66019;HTU21D;52787;51.084;5.816;2022-12-07T16:58:31;7.11;84.47
66019;HTU21D;52787;51.084;5.816;2022-12-07T17:00:57;7.09;84.46
66019;HTU21D;52787;51.084;5.816;2022-12-07T17:03:22;7.05;84.67
66019;HTU21D;52787;51.084;5.816;2022-12-07T17:05:48;7.03;84.67
66019;HTU21D;52787;51.084;5.816;2022-12-07T17:08:14;7.01;84.71
66019;HTU21D;52787;51.084;5.816;2022-12-07T17:10:43;7.00;84.61
66019;HTU21D;52787;51.084;5.816;2022-12-07T17:13:10;7.05;84.65
66019;HTU21D;52787;51.084;5.816;2022-12-07T17:16:03;7.04;84.61
66019;HTU21D;52787;51.084;5.816;2022-12-07T17:18:32;7.10;84.52
66019;HTU21D;52787;51.084;5.816;2022-12-07T17:21:07;7.12;84.26
66019;HTU21D;52787;51.084;5.816;2022-12-07T17:23:35;7.13;84.26
66019;HTU21D;52787;51.084;5.816;2022-12-07T17:26:08;7.11;84.19
66019;HTU21D;52787;51.084;5.816;2022-12-07T17:28:38;7.08;84.45
66019;HTU21D;52787;51.084;5.816;2022-12-07T17:31:06;7.07;84.45
66019;HTU21D;52787;51.084;5.816;2022-12-07T17:33:33;7.09;84.54
66019;HTU21D;52787;51.084;5.816;2022-12-07T17:35:59;7.05;84.55
66019;HTU21D;52787;51.084;5.816;2022-12-07T17:38:25;7.08;84.70
66019;HTU21D;52787;51.084;5.816;2022-12-07T17:40:53;7.11;84.56
66019;HTU21D;52787;51.084;5.816;2022-12-07T17:43:18;7.14;84.41
66019;HTU21D;52787;51.084;5.816;2022-12-07T17:45:44;7.14;84.31
66019;HTU21D;52787;51.084;5.816;2022-12-07T17:48:11;7.12;84.40
66019;HTU21D;52787;51.084;5.816;2022-12-07T17:50:39;7.11;84.46
66019;HTU21D;52787;51.084;5.816;2022-12-07T17:53:23;7.13;84.38
66019;HTU21D;52787;51.084;5.816;2022-12-07T17:55:52;7.15;84.23
66019;HTU21D;52787;51.084;5.816;2022-12-07T17:58:19;7.12;84.34
66019;HTU21D;52787;51.084;5.816;2022-12-07T18:00:44;7.10;84.30
66019;HTU21D;52787;51.084;5.816;2022-12-07T18:03:10;7.08;84.34
66019;HTU21D;52787;51.084;5.816;2022-12-07T18:05:37;7.07;84.46
66019;HTU21D;52787;51.084;5.816;2022-12-07T18:08:04;7.09;84.32
66019;HTU21D;52787;51.084;5.816;2022-12-07T18:10:30;7.11;84.29
66019;HTU21D;52787;51.084;5.816;2022-12-07T18:12:56;7.10;84.02
66019;HTU21D;52787;51.084;5.816;2022-12-07T18:15:42;7.07;83.84